Connexion S'enregistrer

Connexion à votre compte

Identifiant
Mot de passe
Maintenir la connexion active sur ce site

Créer un compte

Pour valider ce formulaire, vous devez remplir tous les champs.
Nom
Identifiant
Mot de passe
Répétez le mot de passe
Adresse e-mail
Répétez l'adresse e-mail

METAR/TAF de Chambéry

[source: ADDS]
METAR
LFLB 202030Z AUTO VRB02KT CAVOK 11/09 Q1014 =
TAF LFLB 201400Z 2015/2115 20010KT CAVOK PROB40 TEMPO 2108/2112 02005KT
TAF
TAF LFLB 201400Z 2015/2115 20010KT CAVOK PROB40 TEMPO 2108/2112 02005KT =
SR / SS: 06:00 / 16:42 UTC (Lever/Coucher du soleil le 2020-10-20)

 

Webcam de l'Aéroclub - Parking Lima et SW (réactualisation : 5min)

Cliquer ici pour une animation sur les 3 dernières heures / Cliquer sur l'image pour l'agrandir dans une nouvelle fenêtre

 

Webcam de l'Aéroclub - Manche à air et WA (réactualisation : 5min)

Cliquer ici pour une animation sur les 3 dernières heures / Cliquer sur l'image pour l'agrandir dans une nouvelle fenêtre

 

JSN Boot template designed by JoomlaShine.com